Impacts TAF Board
For situational awareness. Not to be used for flight planning purposes.
IDs:

KCLE - Cleveland/Hopkins In, OH, US

Issued at 0558 UTC 16 Oct 2018
Updated at 0738 UTC 16 Oct 2018
Potential Impact None Slight Moderate High
Time<<16/20Z 16/21Z 16/22Z 16/23Z 17/00Z 17/01Z 17/02Z 17/03Z 17/04Z 17/05Z 17/06Z 17/07Z 17/08Z>>
Type PRVL PRVL PRVL PRVL PRVL PRVL PRVL PRVL PRVL PRVL PRVL PRVL PRVL
VIS >6 >6 >6 >6 >6 >6 >6 >6 >6 >6 >6 >6 >6
CIG -- -- -- -- -- -- 40 40 40 40 40 40 40
Cover SCT SCT SCT SCT SCT SCT OVC OVC OVC OVC OVC OVC OVC
FltCat VFR VFR VFR VFR VFR VFR VFR VFR VFR VFR VFR VFR VFR
WX -- -- -- -- -- -- -- -- -- -- -- -- --
WDir 240 240 240 240 240 240 230 230 230 230 230 230 230
WSpd 14 14 14 14 14 14 14 14 14 14 14 14 14
WGst 22 22 22 22 22 22 22 22 22 22 22 22 22
Raw TAF
KCLE 160558Z 1606/1712 25008KT P6SM BKN040
  FM160900 27008KT P6SM SCT040 BKN200
  FM161500 24014G22KT P6SM SCT040
  FM170200 23014G22KT P6SM BKN040 OVC100


METAR Board
Radar Display
Forecast Discussion
For situational awareness. Not to be used for flight planning purposes.